Pacific Concord — VRJU4 — position and weather

sailwx.info

Track history (hours):
 
Tides and Currents Weather Stations Pressure Air Temp Water Temp Dewpoint Dewpoint Depression Visibility Wind Speed Wind Dir Waves Ship Positions

Pacific Concord

Last reported at 2018-Jun-13 22:23 UTC. Time now 2018-Jun-19 12:25 UTC.
Position N 31°04' E 123°07'.

Length 295 m; draft 8.6 m.

Type: Cargo ship. MMSI: 477077100.

Date/timePositionNaut miles runAvg speedWind from/ knotsBaromVisibWave heightAir tempDewpointWater temp
2018-Jun-13 22:23N 31°04' E 123°07'410.2
2018-Jun-13 22:00N 31°05' E 123°03'610.5
2018-Jun-13 21:29N 31°05' E 122°56'510.3
2018-Jun-13 21:00N 31°05' E 122°51'510.7
2018-Jun-13 20:30N 31°05' E 122°44'611.6
2018-Jun-13 19:58N 31°05' E 122°37'612.2
2018-Jun-13 19:29N 31°06' E 122°30'510.6
2018-Jun-13 19:00N 31°05' E 122°24'714.5
2018-Jun-13 18:30N 31°07' E 122°16'814.9
2018-Jun-13 17:58N 31°12' E 122°09'713.8
2018-Jun-13 17:30N 31°14' E 122°02'612.0
2018-Jun-13 17:00N 31°16' E 121°55'510.5
2018-Jun-13 16:30N 31°17' E 121°49'710.7
2018-Jun-13 15:52N 31°20' E 121°42'7011.1
2018-Jun-13 09:35N 32°00' E 120°35'114.2
2018-Jun-13 09:30N 32°01' E 120°34'713.6
2018-Jun-13 09:00N 32°02' E 120°26'711.2
2018-Jun-13 08:25N 31°58' E 120°20'3 6.8
2018-Jun-13 07:55N 31°58' E 120°24'0 0.0
2018-Jun-12 07:09N 31°58' E 120°24'0 0.0
2018-Jun-12 06:57N 31°58' E 120°24'0 0.0
2018-Jun-12 06:30N 31°58' E 120°24'0 0.0
2018-Jun-12 06:00N 31°58' E 120°24'0 0.0
2018-Jun-12 05:06N 31°58' E 120°24'0 0.0
2018-Jun-12 01:42N 31°58' E 120°24'0 0.0
2018-Jun-12 01:30N 31°58' E 120°24'0 0.0
2018-Jun-11 07:54N 31°58' E 120°24'1 1.9
2018-Jun-11 07:30N 31°58' E 120°25'3 6.1
2018-Jun-11 07:00N 32°01' E 120°27'5 9.1
2018-Jun-11 06:30N 32°01' E 120°32'2810.5
2018-Jun-11 03:49N 31°47' E 121°01'413.6
2018-Jun-11 03:30N 31°45' E 121°05'916.5
2018-Jun-11 02:59N 31°39' E 121°13'713.6
2018-Jun-11 02:30N 31°35' E 121°18'510.2
2018-Jun-11 02:00N 31°31' E 121°23'611.8
2018-Jun-11 01:29N 31°27' E 121°28'18 9.6
2018-Jun-10 23:39N 31°18' E 121°46'610.8
2018-Jun-10 23:06N 31°16' E 121°52'110.4
2018-Jun-10 22:59N 31°16' E 121°54'611.5
2018-Jun-10 22:29N 31°15' E 122°00'612.3
2018-Jun-10 22:00N 31°13' E 122°07'611.7
2018-Jun-10 21:31N 31°10' E 122°12'510.1
2018-Jun-10 21:00N 31°07' E 122°17'5 9.1
2018-Jun-10 20:30N 31°06' E 122°23'4 7.8
2018-Jun-10 19:59N 31°07' E 122°27'24 0.8
2018-Jun-09 12:42N 30°51' E 122°48'0 0.0
2018-Jun-08 23:42N 30°51' E 122°48'0 0.1
2018-Jun-08 23:06N 30°51' E 122°48'0 0.0
2018-Jun-08 22:57N 30°51' E 122°48'0 0.0
2018-Jun-08 15:00N 30°51' E 122°48'0 0.1
2018-Jun-08 11:24N 30°51' E 122°48'0 0.1
2018-Jun-08 11:00N 30°51' E 122°48'0 0.1
2018-Jun-08 10:27N 30°51' E 122°48'0 0.0
2018-Jun-08 10:00N 30°51' E 122°48'0 0.0
2018-Jun-08 09:30N 30°51' E 122°48'0 0.0
2018-Jun-07 22:36N 30°51' E 122°48'0 0.1
2018-Jun-07 22:21N 30°51' E 122°48'0 0.2
2018-Jun-07 22:00N 30°51' E 122°48'0 0.0
2018-Jun-07 21:30N 30°51' E 122°48'0 0.1
2018-Jun-07 21:00N 30°51' E 122°48'1 0.1
2018-Jun-07 10:00N 30°52' E 122°49'0 0.1
2018-Jun-07 09:24N 30°52' E 122°49'0 0.1
2018-Jun-07 08:45N 30°52' E 122°49'0 0.0
2018-Jun-07 08:30N 30°52' E 122°49'24 0.7
2018-Jun-05 22:55N 30°40' E 122°25'0 0.0
2018-Jun-05 22:25N 30°40' E 122°25'0 0.0
2018-Jun-05 12:43N 30°40' E 122°25'0 0.0
2018-Jun-05 12:28N 30°40' E 122°25'0 0.0
2018-Jun-05 11:58N 30°40' E 122°25'0 0.0
2018-Jun-05 11:19N 30°40' E 122°25'0 0.0
2018-Jun-05 10:58N 30°40' E 122°25'0 0.0
2018-Jun-05 10:28N 30°40' E 122°25'0 0.0
2018-Jun-05 09:58N 30°40' E 122°25'0 0.0
2018-Jun-05 09:28N 30°40' E 122°25'0 0.0
2018-Jun-05 08:43N 30°40' E 122°25'0 0.0
2018-Jun-05 08:30N 30°40' E 122°25'1 1.0
2018-Jun-05 08:00N 30°40' E 122°25'2 4.5
2018-Jun-05 07:30N 30°39' E 122°28'4 7.5
2018-Jun-05 07:01N 30°37' E 122°32'3 5.4
2018-Jun-05 06:27N 30°37' E 122°35'  
Track history (hours):
 
Tides and Currents Weather Stations Pressure Air Temp Water Temp Dewpoint Dewpoint Depression Visibility Wind Speed Wind Dir Waves Ship Positions

Pacific Concord

Last reported at 2018-Jun-13 22:23 UTC. Time now 2018-Jun-19 12:25 UTC.
Position N 31°04' E 123°07'.

Length 295 m; draft 8.6 m.

Type: Cargo ship. MMSI: 477077100.

Date/timePositionNaut miles runAvg speedWind from/ knotsBaromVisibWave heightAir tempDewpointWater temp
2018-Jun-13 22:23N 31°04' E 123°07'410.2
2018-Jun-13 22:00N 31°05' E 123°03'610.5
2018-Jun-13 21:29N 31°05' E 122°56'510.3
2018-Jun-13 21:00N 31°05' E 122°51'510.7
2018-Jun-13 20:30N 31°05' E 122°44'611.6
2018-Jun-13 19:58N 31°05' E 122°37'612.2
2018-Jun-13 19:29N 31°06' E 122°30'510.6
2018-Jun-13 19:00N 31°05' E 122°24'714.5
2018-Jun-13 18:30N 31°07' E 122°16'814.9
2018-Jun-13 17:58N 31°12' E 122°09'713.8
2018-Jun-13 17:30N 31°14' E 122°02'612.0
2018-Jun-13 17:00N 31°16' E 121°55'510.5
2018-Jun-13 16:30N 31°17' E 121°49'710.7
2018-Jun-13 15:52N 31°20' E 121°42'7011.1
2018-Jun-13 09:35N 32°00' E 120°35'114.2
2018-Jun-13 09:30N 32°01' E 120°34'713.6
2018-Jun-13 09:00N 32°02' E 120°26'711.2
2018-Jun-13 08:25N 31°58' E 120°20'3 6.8
2018-Jun-13 07:55N 31°58' E 120°24'0 0.0
2018-Jun-12 07:09N 31°58' E 120°24'0 0.0
2018-Jun-12 06:57N 31°58' E 120°24'0 0.0
2018-Jun-12 06:30N 31°58' E 120°24'0 0.0
2018-Jun-12 06:00N 31°58' E 120°24'0 0.0
2018-Jun-12 05:06N 31°58' E 120°24'0 0.0
2018-Jun-12 01:42N 31°58' E 120°24'0 0.0
2018-Jun-12 01:30N 31°58' E 120°24'0 0.0
2018-Jun-11 07:54N 31°58' E 120°24'1 1.9
2018-Jun-11 07:30N 31°58' E 120°25'3 6.1
2018-Jun-11 07:00N 32°01' E 120°27'5 9.1
2018-Jun-11 06:30N 32°01' E 120°32'2810.5
2018-Jun-11 03:49N 31°47' E 121°01'413.6
2018-Jun-11 03:30N 31°45' E 121°05'916.5
2018-Jun-11 02:59N 31°39' E 121°13'713.6
2018-Jun-11 02:30N 31°35' E 121°18'510.2
2018-Jun-11 02:00N 31°31' E 121°23'611.8
2018-Jun-11 01:29N 31°27' E 121°28'18 9.6
2018-Jun-10 23:39N 31°18' E 121°46'610.8
2018-Jun-10 23:06N 31°16' E 121°52'110.4
2018-Jun-10 22:59N 31°16' E 121°54'611.5
2018-Jun-10 22:29N 31°15' E 122°00'612.3
2018-Jun-10 22:00N 31°13' E 122°07'611.7
2018-Jun-10 21:31N 31°10' E 122°12'510.1
2018-Jun-10 21:00N 31°07' E 122°17'5 9.1
2018-Jun-10 20:30N 31°06' E 122°23'4 7.8
2018-Jun-10 19:59N 31°07' E 122°27'24 0.8
2018-Jun-09 12:42N 30°51' E 122°48'0 0.0
2018-Jun-08 23:42N 30°51' E 122°48'0 0.1
2018-Jun-08 23:06N 30°51' E 122°48'0 0.0
2018-Jun-08 22:57N 30°51' E 122°48'0 0.0
2018-Jun-08 15:00N 30°51' E 122°48'0 0.1
2018-Jun-08 11:24N 30°51' E 122°48'0 0.1
2018-Jun-08 11:00N 30°51' E 122°48'0 0.1
2018-Jun-08 10:27N 30°51' E 122°48'0 0.0
2018-Jun-08 10:00N 30°51' E 122°48'0 0.0
2018-Jun-08 09:30N 30°51' E 122°48'0 0.0
2018-Jun-07 22:36N 30°51' E 122°48'0 0.1
2018-Jun-07 22:21N 30°51' E 122°48'0 0.2
2018-Jun-07 22:00N 30°51' E 122°48'0 0.0
2018-Jun-07 21:30N 30°51' E 122°48'0 0.1
2018-Jun-07 21:00N 30°51' E 122°48'1 0.1
2018-Jun-07 10:00N 30°52' E 122°49'0 0.1
2018-Jun-07 09:24N 30°52' E 122°49'0 0.1
2018-Jun-07 08:45N 30°52' E 122°49'0 0.0
2018-Jun-07 08:30N 30°52' E 122°49'24 0.7
2018-Jun-05 22:55N 30°40' E 122°25'0 0.0
2018-Jun-05 22:25N 30°40' E 122°25'0 0.0
2018-Jun-05 12:43N 30°40' E 122°25'0 0.0
2018-Jun-05 12:28N 30°40' E 122°25'0 0.0
2018-Jun-05 11:58N 30°40' E 122°25'0 0.0
2018-Jun-05 11:19N 30°40' E 122°25'0 0.0
2018-Jun-05 10:58N 30°40' E 122°25'0 0.0
2018-Jun-05 10:28N 30°40' E 122°25'0 0.0
2018-Jun-05 09:58N 30°40' E 122°25'0 0.0
2018-Jun-05 09:28N 30°40' E 122°25'0 0.0
2018-Jun-05 08:43N 30°40' E 122°25'0 0.0
2018-Jun-05 08:30N 30°40' E 122°25'1 1.0
2018-Jun-05 08:00N 30°40' E 122°25'2 4.5
2018-Jun-05 07:30N 30°39' E 122°28'4 7.5
2018-Jun-05 07:01N 30°37' E 122°32'3 5.4
2018-Jun-05 06:27N 30°37' E 122°35'  

Dump ship's entire track history